Time;durP1;ratioP1;P1;durP2;ratioP2;P2;SDS_P1;SDS_P2;PMS_P1;PMS_P2;Temp;Humidity;BMP_temperature;BMP_pressure;BME280_temperature;BME280_humidity;BME280_pressure;Samples;Min_cycle;Max_cycle;Signal;HPM_P1;HPM_P2
2022/09/30 00:01:38;;;;;;;10.00;7.22;;;;;;;;;;5035993;28;20034;-76
2022/09/30 00:04:04;;;;;;;8.98;7.30;;;;;;;;;;5005682;28;20112;-76
2022/09/30 00:06:31;;;;;;;10.02;7.13;;;;;;;;;;5020168;28;20041;-76
2022/09/30 00:08:56;;;;;;;9.48;7.20;;;;;;;;;;5007156;28;20026;-76
2022/09/30 00:11:31;;;;;;;10.35;7.78;;;;;;;;;;5009569;28;20026;-78
2022/09/30 00:13:57;;;;;;;10.50;8.10;;;;;;;;;;5005216;28;20159;-76
2022/09/30 00:16:24;;;;;;;10.45;8.40;;;;;;;;;;5003890;28;20595;-76
2022/09/30 00:18:50;;;;;;;11.90;8.68;;;;;;;;;;5008466;28;20029;-76
2022/09/30 00:21:16;;;;;;;11.90;8.82;;;;;;;;;;5003060;28;20482;-76
2022/09/30 00:23:43;;;;;;;13.25;8.68;;;;;;;;;;5001877;28;20117;-75
2022/09/30 00:26:15;;;;;;;13.00;8.80;;;;;;;;;;5013642;28;20018;-76
2022/09/30 00:28:41;;;;;;;10.75;8.93;;;;;;;;;;5001910;28;20030;-76
2022/09/30 00:31:11;;;;;;;12.55;8.35;;;;;;;;;;5037863;28;20022;-75
2022/09/30 00:33:36;;;;;;;11.98;9.05;;;;;;;;;;5007496;28;20535;-75
2022/09/30 00:36:03;;;;;;;11.82;8.75;;;;;;;;;;5005908;28;20030;-76
2022/09/30 00:38:28;;;;;;;12.45;9.07;;;;;;;;;;5008757;28;20477;-75
2022/09/30 00:40:55;;;;;;;10.90;8.32;;;;;;;;;;5007215;28;20028;-76
2022/09/30 00:43:41;;;;;;;11.88;8.73;;;;;;;;;;5036542;28;20112;-76
2022/09/30 00:46:17;;;;;;;12.77;8.77;;;;;;;;;;5002716;28;20033;-75
2022/09/30 00:48:43;;;;;;;11.15;8.52;;;;;;;;;;5004483;28;20088;-75
2022/09/30 00:51:09;;;;;;;13.18;8.45;;;;;;;;;;5008118;28;20026;-75
2022/09/30 00:53:42;;;;;;;12.32;8.85;;;;;;;;;;5007217;28;20028;-75
2022/09/30 00:56:08;;;;;;;12.65;7.82;;;;;;;;;;5005524;28;20088;-76
2022/09/30 00:59:01;;;;;;;11.00;8.52;;;;;;;;;;5002424;28;20026;-76
2022/09/30 01:01:27;;;;;;;11.65;8.60;;;;;;;;;;4997277;28;20044;-77
2022/09/30 01:03:58;;;;;;;11.23;8.50;;;;;;;;;;5003556;28;20033;-76
2022/09/30 01:06:24;;;;;;;10.20;7.90;;;;;;;;;;5006673;28;20359;-77
2022/09/30 01:08:50;;;;;;;10.23;7.80;;;;;;;;;;5002780;28;20109;-76
2022/09/30 01:11:16;;;;;;;10.50;7.90;;;;;;;;;;5002299;28;20544;-76
2022/09/30 01:13:45;;;;;;;10.60;7.80;;;;;;;;;;5005807;28;20030;-76
2022/09/30 01:16:19;;;;;;;10.40;8.13;;;;;;;;;;5005630;28;20410;-77
2022/09/30 01:18:44;;;;;;;10.93;7.95;;;;;;;;;;5008321;28;20025;-76
2022/09/30 01:21:36;;;;;;;10.55;7.72;;;;;;;;;;5007825;28;20116;-75
2022/09/30 01:24:16;;;;;;;10.80;7.75;;;;;;;;;;5003109;28;20481;-76
2022/09/30 01:27:06;;;;;;;11.02;8.10;;;;;;;;;;5000828;28;20028;-76
2022/09/30 01:29:59;;;;;;;10.10;7.63;;;;;;;;;;5014423;28;20034;-75
2022/09/30 01:32:24;;;;;;;13.07;7.78;;;;;;;;;;5017950;28;20117;-77
2022/09/30 01:35:03;;;;;;;13.15;8.18;;;;;;;;;;5002636;28;20453;-76
2022/09/30 01:37:32;;;;;;;9.88;7.47;;;;;;;;;;5032777;28;20478;-76
2022/09/30 01:40:07;;;;;;;11.10;7.88;;;;;;;;;;5032437;28;20181;-75
2022/09/30 01:42:37;;;;;;;12.13;7.85;;;;;;;;;;5009909;28;20494;-75
2022/09/30 01:45:12;;;;;;;10.13;8.02;;;;;;;;;;5004246;28;20026;-77
2022/09/30 01:47:43;;;;;;;11.00;8.32;;;;;;;;;;5004907;28;20452;-75
2022/09/30 01:50:18;;;;;;;9.30;7.40;;;;;;;;;;5001507;28;20026;-76
2022/09/30 01:53:03;;;;;;;8.93;6.88;;;;;;;;;;5002736;28;20494;-76
2022/09/30 01:55:55;;;;;;;9.77;6.88;;;;;;;;;;5003439;28;20064;-75
2022/09/30 01:58:28;;;;;;;9.68;7.18;;;;;;;;;;5032358;28;20490;-75
2022/09/30 02:00:57;;;;;;;;;;;;;;;;;;4997733;28;20404;-76
2022/09/30 02:03:51;;;;;;;10.02;7.00;;;;;;;;;;5002597;28;19921;-77
2022/09/30 02:06:25;;;;;;;10.90;7.38;;;;;;;;;;5004119;28;20031;-77
2022/09/30 02:09:00;;;;;;;9.75;7.30;;;;;;;;;;4998574;28;20034;-77
2022/09/30 02:11:29;;;;;;;12.45;7.32;;;;;;;;;;5001755;28;20291;-75
2022/09/30 02:14:16;;;;;;;9.10;6.82;;;;;;;;;;5005477;28;20049;-75
2022/09/30 02:16:53;;;;;;;10.52;7.50;;;;;;;;;;5006086;28;20527;-75
2022/09/30 02:19:28;;;;;;;9.90;7.15;;;;;;;;;;4998592;28;20034;-76
2022/09/30 02:22:07;;;;;;;9.23;6.97;;;;;;;;;;4999502;28;20521;-75
2022/09/30 02:24:38;;;;;;;9.73;7.25;;;;;;;;;;5004425;28;20518;-75
2022/09/30 02:27:13;;;;;;;9.63;7.13;;;;;;;;;;5003881;28;20126;-75
2022/09/30 02:29:42;;;;;;;10.40;7.10;;;;;;;;;;5005435;28;20528;-76
2022/09/30 02:32:15;;;;;;;12.70;8.20;;;;;;;;;;5000051;28;20088;-76
2022/09/30 02:34:46;;;;;;;9.75;7.32;;;;;;;;;;5003524;28;20025;-76
2022/09/30 02:37:20;;;;;;;9.10;6.90;;;;;;;;;;5004924;28;20116;-76
2022/09/30 02:40:21;;;;;;;10.63;7.30;;;;;;;;;;5002785;28;20501;-76
2022/09/30 02:42:47;;;;;;;9.07;6.90;;;;;;;;;;5032939;28;20034;-75
2022/09/30 02:45:18;;;;;;;9.20;7.10;;;;;;;;;;5004877;28;20087;-75
2022/09/30 02:48:17;;;;;;;8.70;6.82;;;;;;;;;;5010230;28;20040;-77
2022/09/30 02:51:11;;;;;;;10.48;6.82;;;;;;;;;;5009052;28;20474;-78
2022/09/30 02:53:40;;;;;;;9.68;6.60;;;;;;;;;;5008784;28;20122;-76
2022/09/30 02:56:29;;;;;;;9.07;6.70;;;;;;;;;;5010921;28;20053;-75
2022/09/30 02:58:56;;;;;;;9.35;6.32;;;;;;;;;;5032785;28;20034;-76
2022/09/30 03:01:23;;;;;;;8.57;6.22;;;;;;;;;;5007328;28;20057;-76
2022/09/30 03:04:02;;;;;;;9.88;6.30;;;;;;;;;;5007333;28;20069;-75
2022/09/30 03:06:27;;;;;;;9.25;6.50;;;;;;;;;;5001620;28;20033;-75
2022/09/30 03:08:53;;;;;;;9.30;6.70;;;;;;;;;;5004141;28;20029;-76
2022/09/30 03:11:21;;;;;;;9.80;6.53;;;;;;;;;;5004500;28;20032;-75
2022/09/30 03:13:59;;;;;;;8.25;6.53;;;;;;;;;;5003527;28;20037;-77
2022/09/30 03:16:53;;;;;;;8.00;5.93;;;;;;;;;;5018539;28;20033;-77
2022/09/30 03:19:18;;;;;;;10.25;5.93;;;;;;;;;;5003309;28;20112;-76
2022/09/30 03:21:53;;;;;;;9.43;5.95;;;;;;;;;;5006569;28;20124;-77
2022/09/30 03:24:42;;;;;;;8.70;5.70;;;;;;;;;;5011378;28;20096;-75
2022/09/30 03:27:31;;;;;;;8.45;5.82;;;;;;;;;;5010183;28;20080;-77
2022/09/30 03:30:06;;;;;;;8.70;6.15;;;;;;;;;;5006791;28;20033;-75
2022/09/30 03:33:09;;;;;;;9.77;6.57;;;;;;;;;;5004277;28;20037;-75
2022/09/30 03:35:58;;;;;;;9.15;6.35;;;;;;;;;;5003897;28;20041;-76
2022/09/30 03:38:45;;;;;;;9.85;6.05;;;;;;;;;;5006566;28;20164;-76
2022/09/30 03:41:29;;;;;;;9.85;6.70;;;;;;;;;;5007554;28;20088;-76
2022/09/30 03:44:10;;;;;;;10.18;6.78;;;;;;;;;;5033312;28;20076;-77
2022/09/30 03:46:48;;;;;;;9.20;6.45;;;;;;;;;;5002934;28;20034;-78
2022/09/30 03:49:23;;;;;;;9.60;7.03;;;;;;;;;;5037903;28;20562;-76
2022/09/30 03:51:48;;;;;;;8.27;6.60;;;;;;;;;;5009836;28;20040;-75
2022/09/30 03:54:15;;;;;;;8.40;6.78;;;;;;;;;;4999492;28;20038;-76
2022/09/30 03:56:43;;;;;;;11.70;7.40;;;;;;;;;;5008373;28;20026;-76
2022/09/30 03:59:24;;;;;;;8.82;6.63;;;;;;;;;;5004304;28;20390;-75
2022/09/30 04:01:50;;;;;;;8.65;6.47;;;;;;;;;;4999102;28;20022;-76
2022/09/30 04:04:15;;;;;;;9.38;6.57;;;;;;;;;;5003308;28;20034;-75
2022/09/30 04:06:40;;;;;;;9.38;6.50;;;;;;;;;;5002069;28;20042;-76
2022/09/30 04:09:06;;;;;;;8.48;6.75;;;;;;;;;;5003982;28;20381;-76
2022/09/30 04:11:31;;;;;;;8.45;6.53;;;;;;;;;;5004232;28;20397;-76
2022/09/30 04:13:57;;;;;;;11.05;6.82;;;;;;;;;;5004761;28;20052;-75
2022/09/30 04:16:22;;;;;;;10.85;6.38;;;;;;;;;;5005668;28;20030;-77
2022/09/30 04:18:48;;;;;;;7.93;5.85;;;;;;;;;;5004930;28;20034;-76
2022/09/30 04:21:14;;;;;;;8.90;5.90;;;;;;;;;;5005649;28;20022;-76
2022/09/30 04:23:41;;;;;;;7.45;5.55;;;;;;;;;;4999856;28;20466;-76
2022/09/30 04:26:10;;;;;;;11.88;5.85;;;;;;;;;;5011570;28;20018;-75
2022/09/30 04:28:35;;;;;;;10.13;6.45;;;;;;;;;;5007670;28;20026;-78
2022/09/30 04:31:02;;;;;;;8.55;6.00;;;;;;;;;;5003635;28;20036;-75
2022/09/30 04:33:28;;;;;;;8.65;6.25;;;;;;;;;;5000325;28;20108;-76
2022/09/30 04:35:55;;;;;;;7.20;5.75;;;;;;;;;;5013896;28;20042;-76
2022/09/30 04:38:21;;;;;;;9.65;6.20;;;;;;;;;;5006073;28;20034;-76
2022/09/30 04:40:48;;;;;;;8.90;6.68;;;;;;;;;;5004706;28;20030;-75
2022/09/30 04:43:15;;;;;;;8.75;6.03;;;;;;;;;;5007087;28;20032;-75
2022/09/30 04:45:43;;;;;;;8.82;6.25;;;;;;;;;;5001735;28;20418;-76
2022/09/30 04:48:09;;;;;;;8.82;6.25;;;;;;;;;;5002995;28;20426;-77
2022/09/30 04:50:34;;;;;;;8.27;6.07;;;;;;;;;;5006673;28;20025;-76
2022/09/30 04:53:00;;;;;;;8.32;5.95;;;;;;;;;;5000993;28;20096;-76
2022/09/30 04:55:26;;;;;;;8.82;5.93;;;;;;;;;;5005077;28;20528;-75
2022/09/30 04:57:51;;;;;;;10.48;6.32;;;;;;;;;;5002179;28;20109;-75
2022/09/30 05:00:17;;;;;;;8.52;6.07;;;;;;;;;;5002596;28;20021;-76
2022/09/30 05:02:43;;;;;;;10.00;6.63;;;;;;;;;;5000820;28;20026;-75
2022/09/30 05:05:09;;;;;;;8.65;6.68;;;;;;;;;;5003531;28;20018;-75
2022/09/30 05:07:34;;;;;;;8.90;6.05;;;;;;;;;;5004171;28;20030;-76
2022/09/30 05:09:59;;;;;;;8.13;6.32;;;;;;;;;;5007442;28;20454;-75
2022/09/30 05:12:25;;;;;;;8.13;6.20;;;;;;;;;;5008012;28;20026;-76
2022/09/30 05:14:51;;;;;;;9.82;6.88;;;;;;;;;;5005216;28;20664;-76
2022/09/30 05:17:16;;;;;;;9.68;6.78;;;;;;;;;;4999639;28;20124;-76
2022/09/30 05:19:41;;;;;;;8.80;6.38;;;;;;;;;;4998321;28;20154;-76
2022/09/30 05:22:07;;;;;;;10.18;6.60;;;;;;;;;;4997804;28;20103;-75
2022/09/30 05:24:32;;;;;;;10.13;6.80;;;;;;;;;;5004803;28;20022;-76
2022/09/30 05:26:57;;;;;;;10.98;6.82;;;;;;;;;;5002714;28;20150;-78
2022/09/30 05:29:23;;;;;;;11.45;6.68;;;;;;;;;;5005325;28;20033;-76
2022/09/30 05:31:48;;;;;;;9.55;7.15;;;;;;;;;;5006011;28;20425;-76
2022/09/30 05:34:15;;;;;;;10.88;7.75;;;;;;;;;;5035177;28;20033;-76
2022/09/30 05:36:42;;;;;;;10.57;7.53;;;;;;;;;;4996959;28;20800;-79
2022/09/30 05:39:09;;;;;;;10.25;7.45;;;;;;;;;;5029383;28;20034;-76
2022/09/30 05:41:34;;;;;;;10.35;7.68;;;;;;;;;;5014561;28;20092;-76
2022/09/30 05:44:00;;;;;;;10.88;7.82;;;;;;;;;;5004439;28;20029;-75
2022/09/30 05:46:26;;;;;;;10.98;8.02;;;;;;;;;;5005350;28;20390;-77
2022/09/30 05:48:53;;;;;;;15.35;7.57;;;;;;;;;;5001762;28;20029;-76
2022/09/30 05:51:18;;;;;;;8.82;6.75;;;;;;;;;;4999633;28;20509;-76
2022/09/30 05:53:44;;;;;;;13.55;8.15;;;;;;;;;;4996987;28;20602;-75
2022/09/30 05:56:10;;;;;;;11.93;8.98;;;;;;;;;;5006485;28;20038;-76
2022/09/30 05:58:36;;;;;;;10.52;7.63;;;;;;;;;;5006709;28;20034;-76
2022/09/30 06:01:07;;;;;;;12.85;8.27;;;;;;;;;;5004231;28;20033;-76
2022/09/30 06:03:33;;;;;;;11.93;8.55;;;;;;;;;;4998736;28;20576;-76
2022/09/30 06:05:59;;;;;;;10.98;8.63;;;;;;;;;;5007407;28;20037;-76
2022/09/30 06:08:25;;;;;;;12.13;8.65;;;;;;;;;;5006110;28;20026;-78
2022/09/30 06:10:51;;;;;;;14.98;8.80;;;;;;;;;;4996647;28;20026;-75
2022/09/30 06:13:16;;;;;;;11.88;8.60;;;;;;;;;;5006034;28;20406;-75
2022/09/30 06:15:42;;;;;;;12.48;8.70;;;;;;;;;;5006207;28;20025;-75
2022/09/30 06:18:08;;;;;;;12.80;8.93;;;;;;;;;;5008194;28;20072;-76
2022/09/30 06:20:34;;;;;;;13.57;8.73;;;;;;;;;;5008427;28;20060;-77
2022/09/30 06:23:00;;;;;;;12.98;8.85;;;;;;;;;;5009028;28;20053;-76
2022/09/30 06:25:27;;;;;;;11.73;9.02;;;;;;;;;;5009151;28;20038;-76
2022/09/30 06:27:53;;;;;;;11.85;8.77;;;;;;;;;;5010710;28;20076;-78
2022/09/30 06:30:18;;;;;;;16.33;9.20;;;;;;;;;;5006073;28;20030;-77
2022/09/30 06:32:44;;;;;;;13.00;9.38;;;;;;;;;;5009414;28;20026;-75
2022/09/30 06:35:10;;;;;;;13.68;9.50;;;;;;;;;;5005705;28;20034;-78
2022/09/30 06:37:36;;;;;;;13.18;9.57;;;;;;;;;;5013709;28;20052;-76
2022/09/30 06:40:03;;;;;;;12.20;9.40;;;;;;;;;;5007316;28;20030;-75
2022/09/30 06:42:29;;;;;;;13.55;10.27;;;;;;;;;;5000768;28;20489;-77
2022/09/30 06:44:54;;;;;;;13.52;9.80;;;;;;;;;;5001629;28;20111;-76
2022/09/30 06:47:20;;;;;;;16.10;9.88;;;;;;;;;;5002041;28;20371;-77
2022/09/30 06:49:45;;;;;;;15.15;10.25;;;;;;;;;;5006631;28;20018;-76
2022/09/30 06:52:12;;;;;;;13.77;10.52;;;;;;;;;;5004587;28;20549;-76
2022/09/30 06:54:39;;;;;;;15.43;10.23;;;;;;;;;;5012153;28;20028;-76
2022/09/30 06:57:04;;;;;;;13.10;9.82;;;;;;;;;;5006090;28;20038;-76
2022/09/30 06:59:29;;;;;;;14.07;10.50;;;;;;;;;;5040545;28;20494;-75
2022/09/30 07:01:55;;;;;;;14.63;10.48;;;;;;;;;;5006299;28;20554;-77
2022/09/30 07:04:20;;;;;;;17.67;10.52;;;;;;;;;;5007297;28;20480;-76
2022/09/30 07:06:45;;;;;;;15.73;10.35;;;;;;;;;;5012113;28;20044;-77
2022/09/30 07:09:11;;;;;;;17.38;11.68;;;;;;;;;;5009167;28;20045;-75
2022/09/30 07:11:37;;;;;;;17.15;11.63;;;;;;;;;;5012866;28;20025;-75
2022/09/30 07:14:06;;;;;;;16.60;11.15;;;;;;;;;;5009408;28;20084;-77
2022/09/30 07:16:33;;;;;;;17.48;11.15;;;;;;;;;;5012417;28;20088;-76
2022/09/30 07:18:59;;;;;;;16.23;11.35;;;;;;;;;;5008590;28;20037;-75
2022/09/30 07:21:25;;;;;;;20.90;13.02;;;;;;;;;;5013789;28;20095;-76
2022/09/30 07:23:52;;;;;;;16.50;12.45;;;;;;;;;;5013475;28;20045;-75
2022/09/30 07:26:22;;;;;;;18.40;13.85;;;;;;;;;;5011384;28;20030;-75
2022/09/30 07:28:48;;;;;;;18.17;13.93;;;;;;;;;;5001158;28;20493;-76
2022/09/30 07:31:20;;;;;;;20.55;13.63;;;;;;;;;;5013276;28;20486;-76
2022/09/30 07:33:46;;;;;;;20.75;13.57;;;;;;;;;;5003110;28;20639;-77
2022/09/30 07:36:14;;;;;;;18.65;14.25;;;;;;;;;;5011721;28;20045;-75
2022/09/30 07:38:41;;;;;;;18.33;14.18;;;;;;;;;;5013376;28;20050;-75
2022/09/30 07:41:12;;;;;;;20.00;14.32;;;;;;;;;;5008126;28;20030;-77
2022/09/30 07:43:39;;;;;;;18.58;13.57;;;;;;;;;;5007766;28;20033;-76
2022/09/30 07:46:10;;;;;;;20.10;14.00;;;;;;;;;;5006653;28;20021;-76
2022/09/30 07:48:44;;;;;;;20.33;14.93;;;;;;;;;;5007230;28;20088;-75
2022/09/30 07:51:22;;;;;;;19.63;14.27;;;;;;;;;;5007610;28;20406;-76
2022/09/30 07:53:50;;;;;;;19.67;13.93;;;;;;;;;;5009208;28;20470;-76
2022/09/30 07:56:17;;;;;;;18.90;14.40;;;;;;;;;;5022966;28;20029;-75
2022/09/30 07:58:42;;;;;;;19.83;14.48;;;;;;;;;;5009288;28;20037;-76
2022/09/30 08:01:08;;;;;;;20.85;14.57;;;;;;;;;;5008378;28;20509;-76
2022/09/30 08:03:40;;;;;;;22.77;14.65;;;;;;;;;;5011036;28;20028;-76
2022/09/30 08:06:08;;;;;;;19.65;14.18;;;;;;;;;;5009996;28;20030;-76
2022/09/30 08:08:34;;;;;;;19.55;13.55;;;;;;;;;;5002789;28;20034;-76
2022/09/30 08:11:00;;;;;;;19.05;14.85;;;;;;;;;;5005860;28;20032;-75
2022/09/30 08:13:26;;;;;;;18.33;13.85;;;;;;;;;;5008069;28;20470;-75
2022/09/30 08:15:51;;;;;;;18.95;14.18;;;;;;;;;;5011248;28;20036;-76
2022/09/30 08:18:16;;;;;;;18.00;13.80;;;;;;;;;;5010319;28;20030;-75
2022/09/30 08:20:42;;;;;;;18.38;14.15;;;;;;;;;;5013601;28;20041;-76
2022/09/30 08:23:07;;;;;;;20.05;14.32;;;;;;;;;;5010655;28;20049;-77
2022/09/30 08:25:32;;;;;;;19.98;14.00;;;;;;;;;;5037153;28;20053;-77
2022/09/30 08:27:58;;;;;;;21.45;14.27;;;;;;;;;;5015692;28;20044;-76
2022/09/30 08:30:23;;;;;;;18.92;13.38;;;;;;;;;;5015612;28;20052;-76
2022/09/30 08:32:48;;;;;;;18.73;14.40;;;;;;;;;;5012743;28;20049;-75
2022/09/30 08:35:15;;;;;;;17.77;13.82;;;;;;;;;;5012128;28;20030;-75
2022/09/30 08:37:40;;;;;;;18.08;14.48;;;;;;;;;;5009016;28;20032;-76
2022/09/30 08:40:09;;;;;;;17.85;13.52;;;;;;;;;;5009404;28;20023;-75
2022/09/30 08:42:40;;;;;;;18.83;12.90;;;;;;;;;;5010887;28;20034;-76
2022/09/30 08:45:32;;;;;;;19.17;13.05;;;;;;;;;;5005993;28;20045;-75
2022/09/30 08:48:12;;;;;;;20.92;13.52;;;;;;;;;;5009938;28;20084;-76
2022/09/30 08:51:01;;;;;;;18.52;13.45;;;;;;;;;;5001286;28;20030;-77
2022/09/30 08:53:36;;;;;;;18.05;13.45;;;;;;;;;;5013017;28;20068;-75
2022/09/30 08:56:03;;;;;;;17.58;12.68;;;;;;;;;;5014043;28;20469;-76
2022/09/30 08:58:32;;;;;;;17.60;12.40;;;;;;;;;;5004997;28;20034;-77
2022/09/30 09:01:16;;;;;;;17.75;12.40;;;;;;;;;;5008960;28;20134;-76
2022/09/30 09:03:41;;;;;;;17.33;12.18;;;;;;;;;;5000848;28;20029;-76
2022/09/30 09:06:17;;;;;;;14.25;11.30;;;;;;;;;;4996818;28;20029;-77
2022/09/30 09:08:51;;;;;;;13.32;10.95;;;;;;;;;;5000652;28;20037;-75
2022/09/30 09:11:39;;;;;;;14.52;11.20;;;;;;;;;;5008824;28;20034;-76
2022/09/30 09:14:17;;;;;;;13.50;10.50;;;;;;;;;;5013767;28;20026;-76
2022/09/30 09:17:05;;;;;;;12.73;10.32;;;;;;;;;;5010725;28;20075;-76
2022/09/30 09:19:51;;;;;;;14.82;10.90;;;;;;;;;;5012809;28;20520;-75
2022/09/30 09:22:17;;;;;;;13.07;10.90;;;;;;;;;;5003896;28;20406;-76
2022/09/30 09:24:46;;;;;;;12.50;9.75;;;;;;;;;;5005853;28;20026;-76
2022/09/30 09:27:50;;;;;;;15.18;10.80;;;;;;;;;;5005542;28;20157;-76
2022/09/30 09:30:21;;;;;;;12.20;10.38;;;;;;;;;;4994719;28;20038;-77
2022/09/30 09:32:58;;;;;;;13.25;10.38;;;;;;;;;;5008278;28;20052;-76
2022/09/30 09:35:47;;;;;;;13.10;10.13;;;;;;;;;;5011974;28;20041;-76
2022/09/30 09:38:26;;;;;;;14.15;9.80;;;;;;;;;;5005385;28;20112;-76
2022/09/30 09:41:08;;;;;;;12.35;10.07;;;;;;;;;;4999756;28;20037;-77
2022/09/30 09:43:42;;;;;;;13.43;9.90;;;;;;;;;;5015002;28;20049;-76
2022/09/30 09:46:11;;;;;;;12.63;9.75;;;;;;;;;;5043935;28;20021;-76
2022/09/30 09:48:36;;;;;;;13.60;9.85;;;;;;;;;;5011686;28;20032;-76
2022/09/30 09:51:14;;;;;;;12.18;9.57;;;;;;;;;;5011465;28;20087;-75
2022/09/30 09:53:49;;;;;;;12.93;9.35;;;;;;;;;;5002449;28;20026;-76
2022/09/30 09:56:25;;;;;;;13.07;9.20;;;;;;;;;;5008755;28;20462;-76
2022/09/30 09:59:15;;;;;;;13.10;10.48;;;;;;;;;;5011990;28;20021;-77
2022/09/30 10:01:44;;;;;;;12.57;9.93;;;;;;;;;;5010368;28;20032;-75
2022/09/30 10:04:13;;;;;;;13.43;9.48;;;;;;;;;;5008580;28;20014;-76
2022/09/30 10:06:49;;;;;;;11.15;9.02;;;;;;;;;;5006517;28;20036;-77
2022/09/30 10:09:34;;;;;;;9.95;7.85;;;;;;;;;;5005139;28;20084;-76
2022/09/30 10:12:06;;;;;;;9.90;7.70;;;;;;;;;;5008350;28;20056;-76
2022/09/30 10:14:34;;;;;;;11.18;8.07;;;;;;;;;;5008106;28;20112;-76
2022/09/30 10:17:01;;;;;;;12.10;8.95;;;;;;;;;;4999840;28;20364;-75
2022/09/30 10:19:29;;;;;;;10.60;7.70;;;;;;;;;;5001175;28;20120;-76
2022/09/30 10:22:06;;;;;;;10.05;7.57;;;;;;;;;;5001692;28;20085;-76
2022/09/30 10:24:36;;;;;;;10.52;7.30;;;;;;;;;;5003256;28;20081;-75
2022/09/30 10:27:01;;;;;;;10.55;8.18;;;;;;;;;;5011002;28;20033;-75
2022/09/30 10:29:32;;;;;;;11.63;8.05;;;;;;;;;;5012417;28;20540;-76
2022/09/30 10:32:06;;;;;;;12.18;7.70;;;;;;;;;;5005223;28;20033;-75
2022/09/30 10:34:37;;;;;;;10.85;7.78;;;;;;;;;;5037284;28;20486;-76
2022/09/30 10:37:15;;;;;;;10.95;8.27;;;;;;;;;;5009666;28;20033;-77
2022/09/30 10:40:00;;;;;;;10.57;7.55;;;;;;;;;;5039700;28;20121;-77
2022/09/30 10:42:28;;;;;;;10.88;7.55;;;;;;;;;;5014491;28;20029;-77
2022/09/30 10:45:03;;;;;;;10.02;7.20;;;;;;;;;;5005819;28;20120;-78
2022/09/30 10:47:29;;;;;;;10.07;7.43;;;;;;;;;;5005648;28;20076;-75
2022/09/30 10:50:07;;;;;;;10.30;7.10;;;;;;;;;;5006893;28;20482;-75
2022/09/30 10:52:43;;;;;;;10.35;7.13;;;;;;;;;;5009080;28;20026;-75
2022/09/30 10:55:29;;;;;;;8.60;6.07;;;;;;;;;;5003081;28;20026;-75
2022/09/30 10:58:14;;;;;;;8.88;5.55;;;;;;;;;;5027403;28;20442;-75
2022/09/30 11:00:40;;;;;;;8.70;6.43;;;;;;;;;;5019977;28;20044;-75
2022/09/30 11:03:23;;;;;;;8.80;6.22;;;;;;;;;;5005501;28;20029;-78
2022/09/30 11:05:49;;;;;;;6.97;5.15;;;;;;;;;;5005095;28;20025;-75
2022/09/30 11:08:32;;;;;;;7.32;4.88;;;;;;;;;;5008408;28;20173;-75
2022/09/30 11:11:21;;;;;;;8.13;4.55;;;;;;;;;;5040708;28;20029;-76
2022/09/30 11:14:12;;;;;;;4.82;2.95;;;;;;;;;;5006332;28;20084;-76
2022/09/30 11:17:20;;;;;;;5.05;3.13;;;;;;;;;;5006454;28;20030;-76
2022/09/30 11:19:52;;;;;;;5.72;3.00;;;;;;;;;;5010119;28;20108;-76
2022/09/30 11:22:20;;;;;;;5.18;3.28;;;;;;;;;;5001346;28;20073;-76
2022/09/30 11:24:50;;;;;;;6.70;2.90;;;;;;;;;;5005295;28;20030;-77
2022/09/30 11:27:35;;;;;;;4.05;2.63;;;;;;;;;;4995640;28;20506;-79
2022/09/30 11:30:20;;;;;;;4.97;3.10;;;;;;;;;;5011008;28;20022;-77
2022/09/30 11:32:46;;;;;;;6.00;2.85;;;;;;;;;;5025913;28;20124;-77
2022/09/30 11:35:50;;;;;;;5.18;2.80;;;;;;;;;;5032807;28;20105;-77
2022/09/30 11:38:34;;;;;;;4.60;2.80;;;;;;;;;;5015283;28;20109;-77
2022/09/30 11:41:13;;;;;;;4.90;2.95;;;;;;;;;;5029477;28;20029;-77
2022/09/30 11:44:12;;;;;;;5.75;3.17;;;;;;;;;;5002336;28;20113;-76
2022/09/30 11:47:01;;;;;;;5.53;3.15;;;;;;;;;;5003368;28;20057;-76
2022/09/30 11:49:29;;;;;;;4.05;2.58;;;;;;;;;;5015939;28;20061;-76
2022/09/30 11:52:08;;;;;;;4.03;2.67;;;;;;;;;;5017176;28;20497;-76
2022/09/30 11:54:42;;;;;;;4.57;3.33;;;;;;;;;;4997633;28;20030;-77
2022/09/30 11:57:32;;;;;;;7.50;3.03;;;;;;;;;;4993983;28;20910;-76
2022/09/30 12:00:13;;;;;;;3.78;2.72;;;;;;;;;;5001704;28;20033;-76
2022/09/30 12:02:43;;;;;;;5.53;2.40;;;;;;;;;;5008254;28;20132;-76
2022/09/30 12:05:27;;;;;;;4.75;2.33;;;;;;;;;;5013119;28;20034;-78
2022/09/30 12:08:15;;;;;;;3.70;2.35;;;;;;;;;;5014851;28;20073;-79
2022/09/30 12:10:48;;;;;;;3.65;2.53;;;;;;;;;;5017557;28;20049;-76
2022/09/30 12:13:21;;;;;;;2.87;1.83;;;;;;;;;;5014370;28;20029;-77
2022/09/30 12:15:48;;;;;;;2.17;1.42;;;;;;;;;;5019261;28;20348;-76
2022/09/30 12:18:21;;;;;;;4.57;2.22;;;;;;;;;;5003721;28;20577;-76
2022/09/30 12:20:53;;;;;;;4.40;2.30;;;;;;;;;;5007665;28;20363;-76
2022/09/30 12:23:30;;;;;;;2.72;1.70;;;;;;;;;;5011836;28;20529;-78
2022/09/30 12:25:57;;;;;;;2.80;1.77;;;;;;;;;;5047005;28;20465;-76
2022/09/30 12:31:57;;;;;;;3.28;1.83;;;;;;;;;;5000907;28;20069;-76
2022/09/30 12:34:44;;;;;;;2.25;1.50;;;;;;;;;;5023491;28;20073;-77
2022/09/30 12:37:40;;;;;;;2.50;1.55;;;;;;;;;;5015437;28;20030;-78
2022/09/30 12:40:43;;;;;;;3.42;1.80;;;;;;;;;;5005300;28;20479;-77
2022/09/30 12:43:48;;;;;;;3.55;2.10;;;;;;;;;;5017902;28;20037;-77
2022/09/30 12:46:54;;;;;;;3.40;1.90;;;;;;;;;;5013699;28;20064;-76
2022/09/30 12:49:24;;;;;;;4.20;2.15;;;;;;;;;;5010305;28;20386;-76
2022/09/30 12:51:54;;;;;;;3.38;1.92;;;;;;;;;;5010833;28;20068;-78
2022/09/30 12:54:25;;;;;;;2.75;1.83;;;;;;;;;;5009511;28;20398;-78
2022/09/30 12:56:59;;;;;;;3.70;1.95;;;;;;;;;;5013707;28;20026;-77
2022/09/30 12:59:28;;;;;;;3.00;2.15;;;;;;;;;;5041924;28;20026;-76
2022/09/30 13:01:56;;;;;;;3.15;2.08;;;;;;;;;;5007027;28;20030;-76
2022/09/30 13:04:51;;;;;;;3.78;2.10;;;;;;;;;;5009514;28;20562;-77
2022/09/30 13:07:20;;;;;;;4.38;2.13;;;;;;;;;;5029637;28;20034;-76
2022/09/30 13:10:24;;;;;;;4.55;2.58;;;;;;;;;;5006240;28;20112;-78
2022/09/30 13:13:10;;;;;;;3.38;2.30;;;;;;;;;;5005553;28;20530;-77
2022/09/30 13:15:41;;;;;;;4.18;2.60;;;;;;;;;;5007504;28;20486;-77
2022/09/30 13:18:18;;;;;;;3.78;2.60;;;;;;;;;;5000099;28;20497;-77
2022/09/30 13:21:07;;;;;;;3.58;2.42;;;;;;;;;;5004077;28;20391;-76
2022/09/30 13:23:47;;;;;;;3.60;2.20;;;;;;;;;;5004016;28;20045;-77
2022/09/30 13:26:22;;;;;;;3.47;2.17;;;;;;;;;;5010110;28;20038;-77
2022/09/30 13:28:49;;;;;;;3.28;2.30;;;;;;;;;;4997525;28;20053;-78
2022/09/30 13:31:22;;;;;;;3.72;2.50;;;;;;;;;;5002325;28;20552;-80
2022/09/30 13:34:03;;;;;;;4.03;2.70;;;;;;;;;;5013851;28;20030;-76
2022/09/30 13:36:37;;;;;;;3.75;2.83;;;;;;;;;;5007481;28;20040;-78
2022/09/30 13:39:20;;;;;;;4.13;2.75;;;;;;;;;;5007784;28;20029;-76
2022/09/30 13:41:53;;;;;;;;;;;;;;;;;;5006006;28;20486;-78
2022/09/30 13:44:24;;;;;;;4.63;2.53;;;;;;;;;;5007403;28;19917;-76
2022/09/30 13:46:51;;;;;;;5.57;2.55;;;;;;;;;;5001577;28;20518;-77
2022/09/30 13:49:24;;;;;;;3.78;2.33;;;;;;;;;;5005380;28;20375;-76
2022/09/30 13:51:51;;;;;;;6.72;2.60;;;;;;;;;;5009211;28;20057;-77
2022/09/30 13:54:26;;;;;;;4.10;2.30;;;;;;;;;;5010799;28;20030;-76
2022/09/30 13:56:52;;;;;;;4.75;2.40;;;;;;;;;;5006671;28;20026;-76
2022/09/30 13:59:46;;;;;;;3.58;2.50;;;;;;;;;;5010112;28;20029;-76
2022/09/30 14:02:36;;;;;;;5.43;2.50;;;;;;;;;;5005853;28;20497;-78
2022/09/30 14:05:33;;;;;;;3.40;2.20;;;;;;;;;;5009868;28;20480;-77
2022/09/30 14:08:06;;;;;;;4.10;2.00;;;;;;;;;;4987573;28;20042;-80
2022/09/30 14:11:16;;;;;;;5.18;2.08;;;;;;;;;;5002489;28;20034;-76
2022/09/30 14:14:15;;;;;;;3.45;2.13;;;;;;;;;;5027383;28;20152;-77
2022/09/30 14:17:04;;;;;;;3.63;1.98;;;;;;;;;;5001749;28;20038;-77
2022/09/30 14:20:02;;;;;;;4.72;2.00;;;;;;;;;;5004073;28;20493;-75
2022/09/30 14:22:29;;;;;;;5.20;2.17;;;;;;;;;;5002420;28;20052;-77
2022/09/30 14:24:55;;;;;;;3.08;2.03;;;;;;;;;;5003462;28;20026;-77
2022/09/30 14:27:32;;;;;;;2.83;1.92;;;;;;;;;;5010465;28;20030;-77
2022/09/30 14:30:05;;;;;;;3.55;2.28;;;;;;;;;;5017436;28;20033;-78
2022/09/30 14:32:45;;;;;;;;;;;;;;;;;;5004682;28;20022;-79
2022/09/30 14:35:16;;;;;;;4.55;1.98;;;;;;;;;;5006160;28;20383;-75
2022/09/30 14:37:49;;;;;;;3.67;2.00;;;;;;;;;;5006120;28;20497;-77
2022/09/30 14:40:23;;;;;;;3.08;2.13;;;;;;;;;;5009968;28;20037;-76
2022/09/30 14:42:49;;;;;;;4.75;2.63;;;;;;;;;;5002609;28;20033;-76
2022/09/30 14:45:24;;;;;;;2.40;1.83;;;;;;;;;;5010938;28;20025;-75
2022/09/30 14:47:52;;;;;;;2.67;1.70;;;;;;;;;;5038959;28;20026;-75
2022/09/30 14:50:30;;;;;;;9.10;1.85;;;;;;;;;;5013693;28;20045;-76
2022/09/30 14:52:57;;;;;;;3.10;1.88;;;;;;;;;;5022921;28;20614;-77
2022/09/30 14:55:34;;;;;;;3.45;1.83;;;;;;;;;;5007771;28;20037;-77
2022/09/30 14:58:27;;;;;;;4.65;2.03;;;;;;;;;;5003172;28;20026;-76
2022/09/30 15:01:01;;;;;;;4.15;2.03;;;;;;;;;;5003618;28;20494;-78
2022/09/30 15:03:28;;;;;;;3.22;1.80;;;;;;;;;;5010145;28;20037;-76
2022/09/30 15:05:54;;;;;;;3.00;1.77;;;;;;;;;;5013111;28;20036;-78
2022/09/30 15:08:21;;;;;;;4.65;2.10;;;;;;;;;;5001913;28;20398;-75
2022/09/30 15:10:49;;;;;;;4.15;2.08;;;;;;;;;;4998099;28;20032;-77
2022/09/30 15:13:17;;;;;;;2.95;1.90;;;;;;;;;;5004928;28;20037;-78